createdAt,value
2023-01-18T00:02:01.486Z,20.83
2023-01-18T00:04:27.969Z,23.25
2023-01-18T00:06:54.188Z,25.42
2023-01-18T00:09:20.669Z,26.55
2023-01-18T00:11:48.686Z,23.40
2023-01-18T00:14:14.873Z,20.55
2023-01-18T00:16:41.121Z,23.67
2023-01-18T00:19:13.212Z,24.05
2023-01-18T00:21:40.343Z,26.60
2023-01-18T00:24:10.868Z,27.60
2023-01-18T00:26:37.932Z,21.70
2023-01-18T00:29:04.751Z,21.98
2023-01-18T00:31:31.571Z,23.90
2023-01-18T00:33:57.806Z,24.67
2023-01-18T00:36:24.014Z,24.77
2023-01-18T00:38:53.924Z,24.08
2023-01-18T00:41:20.805Z,23.70
2023-01-18T00:43:47.226Z,26.95
2023-01-18T00:46:17.905Z,25.85
2023-01-18T00:48:44.243Z,25.75
2023-01-18T00:51:14.445Z,26.10
2023-01-18T00:53:41.053Z,25.15
2023-01-18T00:56:08.594Z,26.52
2023-01-18T00:58:34.879Z,21.08
2023-01-18T01:01:01.228Z,27.85
2023-01-18T01:03:27.554Z,22.13
2023-01-18T01:06:12.248Z,25.20
2023-01-18T01:08:38.443Z,20.25
2023-01-18T01:11:06.527Z,23.85
2023-01-18T01:13:51.289Z,25.42
2023-01-18T01:16:36.099Z,27.15
2023-01-18T01:19:21.104Z,24.95
2023-01-18T01:22:06.070Z,25.63
2023-01-18T01:24:50.755Z,27.13
2023-01-18T01:27:17.416Z,21.05
2023-01-18T01:29:43.614Z,23.10
2023-01-18T01:32:10.082Z,21.77
2023-01-18T01:34:36.410Z,24.02
2023-01-18T01:37:03.139Z,27.08
2023-01-18T01:39:29.576Z,23.73
2023-01-18T01:41:55.859Z,25.83
2023-01-18T01:44:24.374Z,24.77
2023-01-18T01:46:50.576Z,25.90
2023-01-18T01:49:23.953Z,26.27
2023-01-18T01:51:52.240Z,22.15
2023-01-18T01:54:22.115Z,28.17
2023-01-18T01:56:49.518Z,23.02
2023-01-18T01:59:16.423Z,25.05
2023-01-18T02:01:44.348Z,26.45
2023-01-18T02:04:11.283Z,25.33
2023-01-18T02:06:38.620Z,20.83
2023-01-18T02:09:09.578Z,25.85
2023-01-18T02:11:35.893Z,21.65
2023-01-18T02:14:04.010Z,21.25
2023-01-18T02:16:56.059Z,22.20
2023-01-18T02:19:41.013Z,23.45
2023-01-18T02:22:22.558Z,25.67
2023-01-18T02:25:00.884Z,22.80
2023-01-18T02:27:43.579Z,22.85
2023-01-18T02:30:10.071Z,24.90
2023-01-18T02:32:36.247Z,24.10
2023-01-18T02:35:02.433Z,23.08
2023-01-18T02:37:42.463Z,23.75
2023-01-18T02:40:08.813Z,25.80
2023-01-18T02:42:55.458Z,21.75
2023-01-18T02:45:43.698Z,28.30
2023-01-18T02:48:10.314Z,27.85
2023-01-18T02:50:36.695Z,24.67
2023-01-18T02:53:02.925Z,28.27
2023-01-18T02:55:29.156Z,28.92
2023-01-18T02:57:56.858Z,23.20
2023-01-18T03:00:23.995Z,30.40
2023-01-18T03:02:50.823Z,23.05
2023-01-18T03:05:18.021Z,26.02
2023-01-18T03:07:56.603Z,28.88
2023-01-18T03:10:25.355Z,27.40
2023-01-18T03:13:00.152Z,26.48
2023-01-18T03:15:35.390Z,31.55
2023-01-18T03:18:12.669Z,20.40
2023-01-18T03:20:41.372Z,22.08
2023-01-18T03:23:31.591Z,25.42
2023-01-18T03:25:59.206Z,23.38
2023-01-18T03:28:49.937Z,24.52
2023-01-18T03:31:58.143Z,23.00
2023-01-18T03:34:29.906Z,22.17
2023-01-18T03:36:57.990Z,22.88
2023-01-18T03:39:28.319Z,17.60
2023-01-18T03:41:57.523Z,21.57
2023-01-18T03:44:31.136Z,23.25
2023-01-18T03:46:57.419Z,23.98
2023-01-18T03:49:24.407Z,27.67
2023-01-18T03:52:08.660Z,23.30
2023-01-18T03:54:34.981Z,24.45
2023-01-18T03:57:07.630Z,22.83
2023-01-18T03:59:34.977Z,25.35
2023-01-18T04:02:02.228Z,22.75
2023-01-18T04:04:28.479Z,24.50
2023-01-18T04:06:54.730Z,24.58
2023-01-18T04:09:21.148Z,27.58
2023-01-18T04:11:47.355Z,18.95
2023-01-18T04:14:13.584Z,18.77
2023-01-18T04:16:39.822Z,20.23
2023-01-18T04:19:07.291Z,20.75
2023-01-18T04:21:33.502Z,24.25
2023-01-18T04:23:59.792Z,21.77
2023-01-18T04:26:26.103Z,21.48
2023-01-18T04:28:52.508Z,22.20
2023-01-18T04:31:18.743Z,23.00
2023-01-18T04:33:45.679Z,21.08
2023-01-18T04:36:11.880Z,18.58
2023-01-18T04:38:38.072Z,20.30
2023-01-18T04:41:04.920Z,25.13
2023-01-18T04:43:31.316Z,21.75
2023-01-18T04:45:57.887Z,26.08
2023-01-18T04:48:24.120Z,20.83
2023-01-18T04:50:50.587Z,21.05
2023-01-18T04:53:17.078Z,22.17
2023-01-18T04:55:43.707Z,22.23
2023-01-18T04:58:10.349Z,20.20
2023-01-18T05:00:39.778Z,22.30
2023-01-18T05:03:09.757Z,19.50
2023-01-18T05:05:36.088Z,21.25
2023-01-18T05:08:02.288Z,23.00
2023-01-18T05:10:28.967Z,19.15
2023-01-18T05:12:55.255Z,21.25
2023-01-18T05:15:21.538Z,20.75
2023-01-18T05:17:47.825Z,19.27
2023-01-18T05:20:14.093Z,23.90
2023-01-18T05:22:40.375Z,21.25
2023-01-18T05:25:06.876Z,19.10
2023-01-18T05:27:33.285Z,20.65
2023-01-18T05:29:59.628Z,22.52
2023-01-18T05:32:25.922Z,24.40
2023-01-18T05:34:52.148Z,18.73
2023-01-18T05:37:18.343Z,24.50
2023-01-18T05:39:44.601Z,22.63
2023-01-18T05:42:10.862Z,18.17
2023-01-18T05:44:37.043Z,20.75
2023-01-18T05:47:03.428Z,23.45
2023-01-18T05:49:29.679Z,23.27
2023-01-18T05:51:55.873Z,20.65
2023-01-18T05:54:22.386Z,23.05
2023-01-18T05:56:48.594Z,18.75
2023-01-18T05:59:15.576Z,23.85
2023-01-18T06:01:42.385Z,20.65
2023-01-18T06:04:08.619Z,25.33
2023-01-18T06:06:34.891Z,19.17
2023-01-18T06:09:01.388Z,28.52
2023-01-18T06:11:27.808Z,21.55
2023-01-18T06:13:54.041Z,27.17
2023-01-18T06:16:20.369Z,21.77
2023-01-18T06:18:46.592Z,21.77
2023-01-18T06:21:12.826Z,24.10
2023-01-18T06:23:39.052Z,23.23
2023-01-18T06:26:05.382Z,26.75
2023-01-18T06:28:31.854Z,24.27
2023-01-18T06:30:58.097Z,22.58
2023-01-18T06:33:24.610Z,24.05
2023-01-18T06:35:50.963Z,23.63
2023-01-18T06:38:17.178Z,23.08
2023-01-18T06:40:43.382Z,25.10
2023-01-18T06:43:10.238Z,23.58
2023-01-18T06:45:36.485Z,24.67
2023-01-18T06:48:03.029Z,24.48
2023-01-18T06:50:29.269Z,31.55
2023-01-18T06:52:55.934Z,25.30
2023-01-18T06:55:22.553Z,31.13
2023-01-18T06:57:48.789Z,27.40
2023-01-18T07:00:16.758Z,27.80
2023-01-18T07:02:42.957Z,27.38
2023-01-18T07:05:09.335Z,23.60
2023-01-18T07:07:35.566Z,25.70
2023-01-18T07:10:01.870Z,27.08
2023-01-18T07:12:28.127Z,29.90
2023-01-18T07:14:54.367Z,30.00
2023-01-18T07:17:20.630Z,32.40
2023-01-18T07:19:46.850Z,32.13
2023-01-18T07:22:13.264Z,28.30
2023-01-18T07:24:39.497Z,30.80
2023-01-18T07:27:06.053Z,30.30
2023-01-18T07:29:32.294Z,30.58
2023-01-18T07:31:59.500Z,29.60
2023-01-18T07:34:25.731Z,29.80
2023-01-18T07:36:52.067Z,33.65
2023-01-18T07:39:18.272Z,28.02
2023-01-18T07:41:44.475Z,32.38
2023-01-18T07:44:11.674Z,37.85
2023-01-18T07:46:38.263Z,31.58
2023-01-18T07:49:05.690Z,30.92
2023-01-18T07:51:33.071Z,34.72
2023-01-18T07:53:59.293Z,36.05
2023-01-18T07:56:25.850Z,35.50
2023-01-18T07:58:52.957Z,35.15
2023-01-18T08:01:20.318Z,40.65
2023-01-18T08:03:47.945Z,40.53
2023-01-18T08:06:16.931Z,33.63
2023-01-18T08:08:43.614Z,33.85
2023-01-18T08:11:10.267Z,32.75
2023-01-18T08:13:36.552Z,35.08
2023-01-18T08:16:04.313Z,31.05
2023-01-18T08:18:30.600Z,35.63
2023-01-18T08:20:56.865Z,37.70
2023-01-18T08:23:23.240Z,34.40
2023-01-18T08:25:49.518Z,34.33
2023-01-18T08:28:16.017Z,37.63
2023-01-18T08:30:43.711Z,34.45
2023-01-18T08:33:10.384Z,38.17
2023-01-18T08:35:43.893Z,36.13
2023-01-18T08:38:10.363Z,36.28
2023-01-18T08:40:36.931Z,36.33
2023-01-18T08:43:04.112Z,36.80
2023-01-18T08:45:30.669Z,36.92
2023-01-18T08:48:02.242Z,36.00
2023-01-18T08:50:29.063Z,35.72
2023-01-18T08:52:55.456Z,35.50
2023-01-18T08:55:22.127Z,37.00
2023-01-18T08:57:49.100Z,35.38
2023-01-18T09:00:18.554Z,33.55
2023-01-18T09:02:44.839Z,35.60
2023-01-18T09:05:11.044Z,34.92
2023-01-18T09:07:37.267Z,34.63
2023-01-18T09:10:04.320Z,36.97
2023-01-18T09:12:30.537Z,31.67
2023-01-18T09:14:56.748Z,31.55
2023-01-18T09:17:23.084Z,34.35
2023-01-18T09:19:49.269Z,30.30
2023-01-18T09:22:15.514Z,33.53
2023-01-18T09:24:42.608Z,29.98
2023-01-18T09:27:08.865Z,36.15
2023-01-18T09:29:35.082Z,37.88
2023-01-18T09:32:01.339Z,32.47
2023-01-18T09:34:27.563Z,37.95
2023-01-18T09:36:53.811Z,35.78
2023-01-18T09:39:20.601Z,31.88
2023-01-18T09:41:54.732Z,37.28
2023-01-18T09:44:33.195Z,37.22
2023-01-18T09:47:05.407Z,37.47
2023-01-18T09:49:57.939Z,35.97
2023-01-18T09:52:50.780Z,38.05
2023-01-18T09:55:19.923Z,43.53
2023-01-18T09:58:04.694Z,40.30
2023-01-18T10:00:33.217Z,38.25
2023-01-18T10:03:01.422Z,33.88
2023-01-18T10:05:40.033Z,36.83
2023-01-18T10:08:18.106Z,37.42
2023-01-18T10:10:53.406Z,41.28
2023-01-18T10:13:22.892Z,37.88
2023-01-18T10:15:49.460Z,34.65
2023-01-18T10:18:16.740Z,38.15
2023-01-18T10:20:48.879Z,40.90
2023-01-18T10:23:18.828Z,38.67
2023-01-18T10:25:55.777Z,37.85
2023-01-18T10:28:46.684Z,36.22
2023-01-18T10:31:31.734Z,37.85
2023-01-18T10:34:00.125Z,35.78
2023-01-18T10:36:32.720Z,33.72
2023-01-18T10:39:01.612Z,34.60
2023-01-18T10:41:29.314Z,35.13
2023-01-18T10:43:56.188Z,34.10
2023-01-18T10:46:22.618Z,34.55
2023-01-18T10:48:50.713Z,37.70
2023-01-18T10:51:35.103Z,31.40
2023-01-18T10:54:19.924Z,32.80
2023-01-18T10:56:49.104Z,30.80
2023-01-18T10:59:26.658Z,34.60
2023-01-18T11:01:54.698Z,35.42
2023-01-18T11:04:28.792Z,29.92
2023-01-18T11:06:56.275Z,32.28
2023-01-18T11:09:34.788Z,30.80
2023-01-18T11:12:38.481Z,26.83
2023-01-18T11:15:13.571Z,27.10
2023-01-18T11:17:42.004Z,26.55
2023-01-18T11:20:16.094Z,27.13
2023-01-18T11:23:02.417Z,20.92
2023-01-18T11:25:35.859Z,18.95
2023-01-18T11:28:02.946Z,20.35
2023-01-18T11:30:29.335Z,23.05
2023-01-18T11:32:59.772Z,23.63
2023-01-18T11:35:28.097Z,20.40
2023-01-18T11:37:58.607Z,20.80
2023-01-18T11:40:29.251Z,17.47
2023-01-18T11:43:15.709Z,24.95
2023-01-18T11:46:20.468Z,17.30
2023-01-18T11:48:51.813Z,19.88
2023-01-18T11:51:27.764Z,14.93
2023-01-18T11:54:04.250Z,15.32
2023-01-18T11:56:33.890Z,13.48
2023-01-18T11:59:01.807Z,14.57
2023-01-18T12:01:27.988Z,14.65
2023-01-18T12:04:11.662Z,13.40
2023-01-18T12:07:03.944Z,12.00
2023-01-18T12:09:45.771Z,13.23
2023-01-18T12:12:19.334Z,14.07
2023-01-18T12:15:06.236Z,13.02
2023-01-18T12:17:58.607Z,14.10
2023-01-18T12:20:41.751Z,12.82
2023-01-18T12:23:27.084Z,12.77
2023-01-18T12:26:13.571Z,13.85
2023-01-18T12:28:59.950Z,13.23
2023-01-18T12:31:38.171Z,11.65
2023-01-18T12:34:15.522Z,10.48
2023-01-18T12:36:46.323Z,10.65
2023-01-18T12:39:22.884Z,13.93
2023-01-18T12:41:49.040Z,11.68
2023-01-18T12:44:31.628Z,11.13
2023-01-18T12:46:58.679Z,11.50
2023-01-18T12:49:26.159Z,11.00
2023-01-18T12:52:00.849Z,12.00
2023-01-18T12:54:41.946Z,12.02
2023-01-18T12:57:08.562Z,11.38
2023-01-18T12:59:55.267Z,11.82
2023-01-18T13:02:36.658Z,13.82
2023-01-18T13:05:11.844Z,11.77
2023-01-18T13:07:40.304Z,10.65
2023-01-18T13:10:13.403Z,11.93
2023-01-18T13:12:40.191Z,12.05
2023-01-18T13:15:09.433Z,11.80
2023-01-18T13:17:39.860Z,11.52
2023-01-18T13:20:12.608Z,12.05
2023-01-18T13:22:49.112Z,10.23
2023-01-18T13:25:27.328Z,10.93
2023-01-18T13:27:58.086Z,11.75
2023-01-18T13:30:25.155Z,10.07
2023-01-18T13:32:51.832Z,9.40
2023-01-18T13:35:31.428Z,9.50
2023-01-18T13:38:17.894Z,7.78
2023-01-18T13:40:56.385Z,8.57
2023-01-18T13:43:32.079Z,9.20
2023-01-18T13:45:59.540Z,9.90
2023-01-18T13:48:46.486Z,7.35
2023-01-18T13:51:41.785Z,10.57
2023-01-18T13:54:09.172Z,8.80
2023-01-18T13:56:39.203Z,9.13
2023-01-18T13:59:16.988Z,8.35
2023-01-18T14:01:44.818Z,8.15
2023-01-18T14:04:30.667Z,8.68
2023-01-18T14:06:59.018Z,8.88
2023-01-18T14:09:31.814Z,6.25
2023-01-18T14:11:58.331Z,8.00
2023-01-18T14:14:31.663Z,7.65
2023-01-18T14:17:27.738Z,9.40
2023-01-18T14:20:27.460Z,7.82
2023-01-18T14:23:01.095Z,7.78
2023-01-18T14:25:40.161Z,8.80
2023-01-18T14:28:11.672Z,8.70
2023-01-18T14:33:15.575Z,9.80
2023-01-18T14:35:52.562Z,8.25
2023-01-18T14:38:19.666Z,9.00
2023-01-18T14:40:47.401Z,9.18
2023-01-18T14:43:15.564Z,10.23
2023-01-18T14:45:47.802Z,15.35
2023-01-18T14:48:19.266Z,9.98
2023-01-18T14:53:16.796Z,10.93
2023-01-18T14:55:43.112Z,10.65
2023-01-18T14:58:12.125Z,16.40
2023-01-18T15:00:42.444Z,9.38
2023-01-18T15:03:12.382Z,11.45
2023-01-18T15:05:38.685Z,11.43
2023-01-18T15:08:05.320Z,11.45
2023-01-18T15:10:31.865Z,9.75
2023-01-18T15:12:59.136Z,11.25
2023-01-18T15:15:30.357Z,10.07
2023-01-18T15:18:00.312Z,11.90
2023-01-18T15:20:26.789Z,10.98
2023-01-18T15:22:53.326Z,10.10
2023-01-18T15:25:22.788Z,12.85
2023-01-18T15:27:51.435Z,11.88
2023-01-18T15:30:18.623Z,9.70
2023-01-18T15:32:45.579Z,11.55
2023-01-18T15:35:15.149Z,9.82
2023-01-18T15:37:41.989Z,12.55
2023-01-18T15:40:14.289Z,11.88
2023-01-18T15:42:48.112Z,11.15
2023-01-18T15:45:20.383Z,11.57
2023-01-18T15:47:48.592Z,13.25
2023-01-18T15:50:22.196Z,12.25
2023-01-18T15:53:01.831Z,13.65
2023-01-18T15:55:32.220Z,12.13
2023-01-18T15:58:00.837Z,13.07
2023-01-18T16:00:38.095Z,11.88
2023-01-18T16:03:05.157Z,11.88
2023-01-18T16:05:32.266Z,14.45
2023-01-18T16:08:19.057Z,15.38
2023-01-18T16:10:50.219Z,10.55
2023-01-18T16:13:32.899Z,12.57
2023-01-18T16:16:28.823Z,12.88
2023-01-18T16:19:04.714Z,15.65
2023-01-18T16:21:40.314Z,12.13
2023-01-18T16:24:14.808Z,15.73
2023-01-18T16:26:42.106Z,14.50
2023-01-18T16:29:08.902Z,10.68
2023-01-18T16:31:35.702Z,12.73
2023-01-18T16:34:03.128Z,11.77
2023-01-18T16:36:34.734Z,13.00
2023-01-18T16:39:04.296Z,11.32
2023-01-18T16:41:31.914Z,11.50
2023-01-18T16:43:58.123Z,10.95
2023-01-18T16:46:24.426Z,12.52
2023-01-18T16:48:51.683Z,10.25
2023-01-18T16:51:18.436Z,10.10
2023-01-18T16:53:44.762Z,11.90
2023-01-18T16:56:13.919Z,10.40
2023-01-18T16:58:40.131Z,11.48
2023-01-18T17:01:14.042Z,11.50
2023-01-18T17:03:40.501Z,11.35
2023-01-18T17:06:06.732Z,9.32
2023-01-18T17:08:33.166Z,10.65
2023-01-18T17:10:59.663Z,10.68
2023-01-18T17:13:26.141Z,8.35
2023-01-18T17:15:53.079Z,10.77
2023-01-18T17:18:22.349Z,9.43
2023-01-18T17:20:48.653Z,10.60
2023-01-18T17:23:14.905Z,11.20
2023-01-18T17:25:41.383Z,8.57
2023-01-18T17:28:08.517Z,10.38
2023-01-18T17:30:34.809Z,9.13
2023-01-18T17:33:01.560Z,11.35
2023-01-18T17:35:28.517Z,10.85
2023-01-18T17:38:00.990Z,11.38
2023-01-18T17:40:40.164Z,13.75
2023-01-18T17:43:17.361Z,9.23
2023-01-18T17:45:59.589Z,11.25
2023-01-18T17:48:27.549Z,10.30
2023-01-18T17:50:53.727Z,8.93
2023-01-18T17:53:19.957Z,11.63
2023-01-18T17:55:46.343Z,11.55
2023-01-18T17:58:12.606Z,12.02
2023-01-18T18:00:38.969Z,8.95
2023-01-18T18:03:05.727Z,8.52
2023-01-18T18:05:32.159Z,10.23
2023-01-18T18:07:58.389Z,10.15
2023-01-18T18:10:24.613Z,10.85
2023-01-18T18:12:50.880Z,12.05
2023-01-18T18:15:17.150Z,10.25
2023-01-18T18:17:43.395Z,10.05
2023-01-18T18:20:10.757Z,10.38
2023-01-18T18:22:37.520Z,11.82
2023-01-18T18:25:04.198Z,11.15
2023-01-18T18:27:44.387Z,9.48
2023-01-18T18:30:12.753Z,8.88
2023-01-18T18:32:39.020Z,11.13
2023-01-18T18:35:14.687Z,9.25
2023-01-18T18:37:49.701Z,12.68
2023-01-18T18:40:16.170Z,10.77
2023-01-18T18:42:45.305Z,9.88
2023-01-18T18:45:16.071Z,8.38
2023-01-18T18:47:42.326Z,11.95
2023-01-18T18:50:09.012Z,11.60
2023-01-18T18:52:35.259Z,14.07
2023-01-18T18:55:01.568Z,12.27
2023-01-18T18:57:29.300Z,11.43
2023-01-18T18:59:55.520Z,13.68
2023-01-18T19:02:21.789Z,18.50
2023-01-18T19:04:48.069Z,14.32
2023-01-18T19:07:14.271Z,13.88
2023-01-18T19:09:40.576Z,15.55
2023-01-18T19:12:06.798Z,16.05
2023-01-18T19:14:33.085Z,17.63
2023-01-18T19:17:00.159Z,17.15
2023-01-18T19:19:26.886Z,17.08
2023-01-18T19:21:53.275Z,15.48
2023-01-18T19:24:19.636Z,14.48
2023-01-18T19:26:45.843Z,17.85
2023-01-18T19:29:12.248Z,15.63
2023-01-18T19:31:39.413Z,15.23
2023-01-18T19:34:06.030Z,15.95
2023-01-18T19:36:33.868Z,16.38
2023-01-18T19:39:02.241Z,14.60
2023-01-18T19:41:30.232Z,12.90
2023-01-18T19:43:56.636Z,13.52
2023-01-18T19:46:22.889Z,14.88
2023-01-18T19:48:49.142Z,13.82
2023-01-18T19:51:22.354Z,14.57
2023-01-18T19:53:49.401Z,14.73
2023-01-18T19:56:15.738Z,12.60
2023-01-18T19:58:41.974Z,11.70
2023-01-18T20:01:09.522Z,12.60
2023-01-18T20:03:37.132Z,11.30
2023-01-18T20:06:07.420Z,12.80
2023-01-18T20:08:34.129Z,13.52
2023-01-18T20:11:04.750Z,13.98
2023-01-18T20:13:31.055Z,12.50
2023-01-18T20:15:57.629Z,12.68
2023-01-18T20:18:23.873Z,13.13
2023-01-18T20:20:50.832Z,13.73
2023-01-18T20:23:17.063Z,11.52
2023-01-18T20:25:43.276Z,10.57
2023-01-18T20:28:09.539Z,11.68
2023-01-18T20:30:35.804Z,12.13
2023-01-18T20:33:02.526Z,11.15
2023-01-18T20:35:29.160Z,12.65
2023-01-18T20:37:55.524Z,9.65
2023-01-18T20:40:21.766Z,11.13
2023-01-18T20:42:48.002Z,9.10
2023-01-18T20:45:14.333Z,9.55
2023-01-18T20:47:40.547Z,10.35
2023-01-18T20:50:06.876Z,9.38
2023-01-18T20:52:33.116Z,9.98
2023-01-18T20:54:59.515Z,9.32
2023-01-18T20:57:29.282Z,10.98
2023-01-18T20:59:55.474Z,11.80
2023-01-18T21:02:21.798Z,7.90
2023-01-18T21:04:48.029Z,10.52
2023-01-18T21:07:14.230Z,10.02
2023-01-18T21:09:40.433Z,8.90
2023-01-18T21:12:06.645Z,10.15
2023-01-18T21:14:32.853Z,13.35
2023-01-18T21:16:59.135Z,10.98
2023-01-18T21:19:25.543Z,10.25
2023-01-18T21:21:51.764Z,11.90
2023-01-18T21:24:18.054Z,9.23
2023-01-18T21:26:44.320Z,10.48
2023-01-18T21:29:10.531Z,10.23
2023-01-18T21:31:37.936Z,9.15
2023-01-18T21:34:05.714Z,10.32
2023-01-18T21:36:31.918Z,9.57
2023-01-18T21:38:58.195Z,12.20
2023-01-18T21:41:43.119Z,13.40
2023-01-18T21:44:30.876Z,11.40
2023-01-18T21:46:57.195Z,11.32
2023-01-18T21:50:15.078Z,10.05
2023-01-18T21:52:48.763Z,10.40
2023-01-18T21:55:15.363Z,13.50
2023-01-18T21:57:41.618Z,10.50
2023-01-18T22:00:08.791Z,9.77
2023-01-18T22:02:35.229Z,11.35
2023-01-18T22:05:03.438Z,13.63
2023-01-18T22:07:31.136Z,10.60
2023-01-18T22:10:06.058Z,11.48
2023-01-18T22:12:34.731Z,12.02
2023-01-18T22:15:01.968Z,16.15
2023-01-18T22:17:28.513Z,14.63
2023-01-18T22:19:54.714Z,11.48
2023-01-18T22:22:20.920Z,11.50
2023-01-18T22:24:47.109Z,11.63
2023-01-18T22:27:13.330Z,11.20
2023-01-18T22:29:39.513Z,11.43
2023-01-18T22:32:05.847Z,12.20
2023-01-18T22:34:32.089Z,12.73
2023-01-18T22:36:58.353Z,13.48
2023-01-18T22:39:24.676Z,14.20
2023-01-18T22:41:50.902Z,12.68
2023-01-18T22:44:17.195Z,11.63
2023-01-18T22:46:43.500Z,11.43
2023-01-18T22:49:09.709Z,12.73
2023-01-18T22:51:35.915Z,12.35
2023-01-18T22:54:02.163Z,14.80
2023-01-18T22:56:28.370Z,11.60
2023-01-18T22:58:54.660Z,12.68
2023-01-18T23:01:22.558Z,13.20
2023-01-18T23:03:49.935Z,14.98
2023-01-18T23:06:16.688Z,13.63
2023-01-18T23:08:43.058Z,12.65
2023-01-18T23:11:14.038Z,11.80
2023-01-18T23:13:41.986Z,13.65
2023-01-18T23:16:28.863Z,12.13
2023-01-18T23:18:55.100Z,13.43
2023-01-18T23:21:21.332Z,12.20
2023-01-18T23:23:47.547Z,14.30
2023-01-18T23:26:13.806Z,11.10
2023-01-18T23:28:43.022Z,12.57
2023-01-18T23:31:14.207Z,11.98
2023-01-18T23:33:40.505Z,12.43
2023-01-18T23:36:07.316Z,10.38
2023-01-18T23:38:52.090Z,12.18
2023-01-18T23:41:36.748Z,10.13
2023-01-18T23:44:21.972Z,13.70
2023-01-18T23:47:06.933Z,13.90
2023-01-18T23:49:52.042Z,11.63
2023-01-18T23:52:36.810Z,13.63
2023-01-18T23:55:03.791Z,11.98
2023-01-18T23:57:30.669Z,13.95
2023-01-18T23:59:56.972Z,14.27
